createdAt,value
2022-07-25T00:00:24.468Z,22.49
2022-07-25T00:03:27.079Z,22.42
2022-07-25T00:06:32.564Z,22.45
2022-07-25T00:09:35.493Z,22.53
2022-07-25T00:12:38.299Z,22.49
2022-07-25T00:15:41.011Z,22.49
2022-07-25T00:18:43.684Z,22.52
2022-07-25T00:21:48.584Z,22.44
2022-07-25T00:24:51.194Z,22.42
2022-07-25T00:27:53.820Z,22.37
2022-07-25T00:30:56.647Z,22.41
2022-07-25T00:33:59.253Z,22.46
2022-07-25T00:37:03.240Z,22.46
2022-07-25T00:40:06.508Z,22.47
2022-07-25T00:43:09.169Z,22.39
2022-07-25T00:46:13.906Z,22.46
2022-07-25T00:49:21.505Z,22.38
2022-07-25T00:52:25.792Z,22.25
2022-07-25T00:55:29.281Z,22.06
2022-07-25T00:58:32.063Z,22.15
2022-07-25T01:01:34.672Z,22.25
2022-07-25T01:04:37.395Z,22.24
2022-07-25T01:07:41.814Z,22.25
2022-07-25T01:10:45.273Z,22.39
2022-07-25T01:13:47.882Z,22.30
2022-07-25T01:16:50.608Z,22.22
2022-07-25T01:19:53.687Z,22.30
2022-07-25T01:22:58.449Z,22.31
2022-07-25T01:26:01.055Z,22.24
2022-07-25T01:29:04.094Z,22.27
2022-07-25T01:32:07.027Z,22.29
2022-07-25T01:35:10.890Z,22.06
2022-07-25T01:38:15.449Z,22.01
2022-07-25T01:41:22.187Z,22.06
2022-07-25T01:44:25.353Z,21.97
2022-07-25T01:47:27.957Z,21.96
2022-07-25T01:50:30.621Z,21.93
2022-07-25T01:53:34.641Z,21.76
2022-07-25T01:56:38.666Z,21.77
2022-07-25T01:59:43.690Z,21.83
2022-07-25T02:02:46.684Z,21.82
2022-07-25T02:05:49.330Z,21.77
2022-07-25T02:08:53.310Z,21.79
2022-07-25T02:11:56.224Z,21.76
2022-07-25T02:14:58.832Z,21.65
2022-07-25T02:18:01.414Z,21.76
2022-07-25T02:21:07.088Z,21.62
2022-07-25T02:24:18.559Z,21.73
2022-07-25T02:27:21.168Z,21.63
2022-07-25T02:30:23.899Z,21.68
2022-07-25T02:33:26.490Z,21.66
2022-07-25T02:36:29.304Z,21.62
2022-07-25T02:39:33.225Z,21.63
2022-07-25T02:42:35.821Z,21.66
2022-07-25T02:45:38.478Z,21.68
2022-07-25T02:48:41.226Z,21.68
2022-07-25T02:51:43.853Z,21.64
2022-07-25T02:54:47.803Z,21.69
2022-07-25T02:57:50.397Z,21.65
2022-07-25T03:03:55.663Z,21.67
2022-07-25T03:06:58.561Z,21.67
2022-07-25T03:10:03.012Z,21.49
2022-07-25T03:13:13.445Z,21.50
2022-07-25T03:16:16.414Z,21.51
2022-07-25T03:19:19.091Z,21.53
2022-07-25T03:22:21.923Z,21.54
2022-07-25T03:25:26.074Z,21.58
2022-07-25T03:28:28.966Z,21.47
2022-07-25T03:31:31.587Z,21.45
2022-07-25T03:34:34.367Z,21.54
2022-07-25T03:37:36.984Z,21.54
2022-07-25T03:40:40.895Z,21.44
2022-07-25T03:43:43.485Z,21.46
2022-07-25T03:46:46.139Z,21.30
2022-07-25T03:49:48.742Z,21.45
2022-07-25T03:52:51.307Z,21.37
2022-07-25T03:55:55.233Z,21.34
2022-07-25T03:58:57.864Z,21.40
2022-07-25T04:02:00.503Z,21.48
2022-07-25T04:05:03.158Z,21.53
2022-07-25T04:08:06.118Z,21.33
2022-07-25T04:11:10.053Z,21.44
2022-07-25T04:14:13.105Z,21.48
2022-07-25T04:17:15.965Z,21.35
2022-07-25T04:20:18.754Z,21.43
2022-07-25T04:23:21.349Z,21.47
2022-07-25T04:26:25.245Z,21.40
2022-07-25T04:29:27.782Z,21.30
2022-07-25T04:32:30.641Z,21.37
2022-07-25T04:35:33.240Z,21.45
2022-07-25T04:38:36.123Z,21.35
2022-07-25T04:41:40.058Z,21.48
2022-07-25T04:44:42.665Z,21.28
2022-07-25T04:47:45.211Z,21.42
2022-07-25T04:50:47.812Z,21.53
2022-07-25T04:53:50.593Z,21.66
2022-07-25T04:56:54.491Z,21.66
2022-07-25T04:59:57.237Z,21.59
2022-07-25T05:03:00.158Z,21.64
2022-07-25T05:06:02.957Z,21.80
2022-07-25T05:09:05.581Z,21.79
2022-07-25T05:12:10.044Z,21.71
2022-07-25T05:15:13.532Z,21.90
2022-07-25T05:18:16.136Z,21.85
2022-07-25T05:21:18.820Z,22.03
2022-07-25T05:24:22.931Z,21.95
2022-07-25T05:27:26.881Z,22.08
2022-07-25T05:30:29.623Z,22.14
2022-07-25T05:33:32.204Z,22.08
2022-07-25T05:36:34.966Z,22.13
2022-07-25T05:39:40.165Z,22.12
2022-07-25T05:42:44.087Z,22.06
2022-07-25T05:45:47.656Z,22.12
2022-07-25T05:48:50.311Z,22.05
2022-07-25T05:51:53.152Z,22.31
2022-07-25T05:54:55.774Z,22.34
2022-07-25T05:57:59.677Z,22.43
2022-07-25T06:01:05.067Z,22.55
2022-07-25T06:04:08.049Z,22.81
2022-07-25T06:07:10.938Z,22.91
2022-07-25T06:10:19.897Z,22.96
2022-07-25T06:13:23.898Z,23.20
2022-07-25T06:16:26.802Z,23.33
2022-07-25T06:19:29.482Z,23.39
2022-07-25T06:22:32.367Z,23.63
2022-07-25T06:25:35.025Z,23.73
2022-07-25T06:28:39.522Z,23.86
2022-07-25T06:31:42.288Z,23.85
2022-07-25T06:34:48.989Z,23.93
2022-07-25T06:37:51.625Z,23.92
2022-07-25T06:40:54.233Z,24.08
2022-07-25T06:43:58.215Z,24.17
2022-07-25T06:47:00.987Z,24.12
2022-07-25T06:50:03.842Z,24.16
2022-07-25T06:53:10.562Z,24.19
2022-07-25T06:56:17.483Z,24.28
2022-07-25T06:59:21.738Z,24.51
2022-07-25T07:02:24.407Z,24.76
2022-07-25T07:05:28.746Z,25.02
2022-07-25T07:08:31.391Z,25.37
2022-07-25T07:11:34.309Z,25.44
2022-07-25T07:14:38.612Z,25.38
2022-07-25T07:17:41.293Z,25.37
2022-07-25T07:20:44.085Z,25.32
2022-07-25T07:23:46.836Z,25.36
2022-07-25T07:26:50.541Z,25.51
2022-07-25T07:29:54.499Z,25.74
2022-07-25T07:32:57.817Z,25.78
2022-07-25T07:36:00.421Z,25.97
2022-07-25T07:39:03.158Z,26.11
2022-07-25T07:42:06.147Z,26.24
2022-07-25T07:45:15.183Z,26.32
2022-07-25T07:48:17.760Z,26.54
2022-07-25T07:51:20.320Z,26.65
2022-07-25T07:54:40.583Z,26.87
2022-07-25T07:57:43.178Z,27.11
2022-07-25T08:00:49.554Z,27.35
2022-07-25T08:03:52.434Z,27.48
2022-07-25T08:06:55.227Z,27.60
2022-07-25T08:09:57.795Z,27.70
2022-07-25T08:13:00.994Z,27.77
2022-07-25T08:16:06.036Z,27.86
2022-07-25T08:19:08.710Z,28.17
2022-07-25T08:22:11.266Z,28.15
2022-07-25T08:25:16.225Z,28.15
2022-07-25T08:28:22.695Z,28.26
2022-07-25T08:31:28.057Z,28.58
2022-07-25T08:34:30.816Z,28.70
2022-07-25T08:37:33.725Z,28.72
2022-07-25T08:40:36.344Z,29.10
2022-07-25T08:43:39.730Z,29.22
2022-07-25T08:46:44.422Z,29.10
2022-07-25T08:49:47.501Z,29.20
2022-07-25T08:53:00.731Z,29.52
2022-07-25T08:56:17.549Z,29.48
2022-07-25T08:59:23.515Z,29.41
2022-07-25T09:02:28.338Z,29.41
2022-07-25T09:05:32.427Z,29.72
2022-07-25T09:08:35.006Z,30.10
2022-07-25T09:11:39.175Z,30.53
2022-07-25T09:14:42.514Z,30.77
2022-07-25T09:17:52.853Z,31.09
2022-07-25T09:20:58.623Z,31.51
2022-07-25T09:24:09.838Z,31.48
2022-07-25T09:27:13.134Z,31.67
2022-07-25T09:30:16.897Z,31.58
2022-07-25T09:33:20.855Z,31.45
2022-07-25T09:36:23.958Z,31.23
2022-07-25T09:39:34.591Z,31.15
2022-07-25T09:42:37.537Z,31.39
2022-07-25T09:45:49.988Z,31.88
2022-07-25T09:48:58.491Z,31.78
2022-07-25T09:52:01.373Z,32.06
2022-07-25T09:55:06.504Z,31.90
2022-07-25T09:58:09.182Z,31.72
2022-07-25T10:01:18.244Z,31.62
2022-07-25T10:04:24.571Z,31.67
2022-07-25T10:07:31.267Z,31.70
2022-07-25T10:10:40.095Z,31.81
2022-07-25T10:13:42.736Z,32.06
2022-07-25T10:16:49.991Z,32.00
2022-07-25T10:19:58.671Z,32.24
2022-07-25T10:23:01.739Z,32.31
2022-07-25T10:26:09.371Z,32.16
2022-07-25T10:29:14.032Z,32.14
2022-07-25T10:32:17.727Z,31.96
2022-07-25T10:35:21.669Z,31.79
2022-07-25T10:38:26.162Z,31.77
2022-07-25T10:41:29.882Z,31.60
2022-07-25T10:44:42.437Z,31.59
2022-07-25T10:47:54.857Z,31.68
2022-07-25T10:51:00.898Z,31.82
2022-07-25T10:54:14.264Z,32.08
2022-07-25T10:57:17.202Z,32.19
2022-07-25T11:00:20.503Z,31.96
2022-07-25T11:03:23.133Z,31.76
2022-07-25T11:06:38.359Z,31.75
2022-07-25T11:09:42.205Z,31.64
2022-07-25T11:12:45.862Z,31.43
2022-07-25T11:15:48.984Z,31.19
2022-07-25T11:18:51.667Z,30.92
2022-07-25T11:21:57.423Z,30.74
2022-07-25T11:25:00.920Z,30.51
2022-07-25T11:28:04.061Z,30.40
2022-07-25T11:31:07.065Z,28.28
2022-07-25T11:34:09.804Z,27.30
2022-07-25T11:37:14.652Z,27.25
2022-07-25T11:40:18.578Z,27.50
2022-07-25T11:43:22.465Z,28.05
2022-07-25T11:46:25.668Z,28.66
2022-07-25T11:49:28.404Z,29.27
2022-07-25T11:52:34.920Z,30.01
2022-07-25T11:55:40.882Z,30.86
2022-07-25T11:58:44.235Z,31.25
2022-07-25T12:01:47.524Z,31.31
2022-07-25T12:04:55.348Z,31.57
2022-07-25T12:08:01.118Z,32.14
2022-07-25T12:11:03.726Z,32.67
2022-07-25T12:14:07.291Z,32.30
2022-07-25T12:17:09.935Z,31.98
2022-07-25T12:20:16.690Z,31.86
2022-07-25T12:23:22.204Z,32.60
2022-07-25T12:26:24.841Z,32.96
2022-07-25T12:29:27.377Z,33.07
2022-07-25T12:32:30.562Z,33.63
2022-07-25T12:35:33.204Z,33.81
2022-07-25T12:38:38.303Z,33.79
2022-07-25T12:41:42.460Z,34.43
2022-07-25T12:44:45.167Z,34.87
2022-07-25T12:47:48.960Z,34.64
2022-07-25T12:50:51.603Z,34.13
2022-07-25T12:53:55.621Z,33.73
2022-07-25T12:56:58.270Z,33.46
2022-07-25T13:00:00.969Z,32.99
2022-07-25T13:03:04.361Z,32.49
2022-07-25T13:06:07.484Z,32.13
2022-07-25T13:09:11.765Z,31.86
2022-07-25T13:12:16.583Z,31.71
2022-07-25T13:15:20.882Z,31.56
2022-07-25T13:18:23.569Z,31.39
2022-07-25T13:21:26.161Z,31.25
2022-07-25T13:24:31.007Z,31.12
2022-07-25T13:27:33.749Z,31.06
2022-07-25T13:30:36.464Z,31.04
2022-07-25T13:33:39.033Z,30.92
2022-07-25T13:36:41.633Z,30.89
2022-07-25T13:39:45.838Z,30.76
2022-07-25T13:42:48.436Z,30.71
2022-07-25T13:45:51.141Z,30.63
2022-07-25T13:48:53.828Z,30.74
2022-07-25T13:51:56.431Z,30.73
2022-07-25T13:55:00.378Z,30.73
2022-07-25T13:58:03.032Z,31.03
2022-07-25T14:01:07.234Z,31.35
2022-07-25T14:04:09.917Z,31.37
2022-07-25T14:07:12.529Z,31.36
2022-07-25T14:10:16.511Z,31.30
2022-07-25T14:13:19.520Z,31.28
2022-07-25T14:16:22.147Z,31.43
2022-07-25T14:19:25.099Z,31.48
2022-07-25T14:22:27.900Z,31.76
2022-07-25T14:25:32.090Z,31.69
2022-07-25T14:28:34.693Z,31.52
2022-07-25T14:31:37.618Z,31.39
2022-07-25T14:34:40.359Z,31.34
2022-07-25T14:37:43.101Z,31.77
2022-07-25T14:40:48.213Z,31.68
2022-07-25T14:43:50.769Z,31.72
2022-07-25T14:46:53.629Z,31.74
2022-07-25T14:49:56.772Z,31.57
2022-07-25T14:52:59.352Z,31.37
2022-07-25T14:56:06.135Z,30.47
2022-07-25T14:59:09.304Z,29.91
2022-07-25T15:02:12.486Z,29.20
2022-07-25T15:05:15.204Z,28.79
2022-07-25T15:08:17.839Z,28.37
2022-07-25T15:11:22.734Z,28.07
2022-07-25T15:14:25.314Z,27.69
2022-07-25T15:17:27.944Z,27.22
2022-07-25T15:20:30.466Z,26.87
2022-07-25T15:23:33.083Z,26.61
2022-07-25T15:26:37.520Z,26.19
2022-07-25T15:29:40.073Z,25.82
2022-07-25T15:32:42.876Z,25.06
2022-07-25T15:35:47.123Z,24.72
2022-07-25T15:38:49.970Z,23.91
2022-07-25T15:41:53.909Z,23.84
2022-07-25T15:45:22.231Z,23.65
2022-07-25T15:48:19.311Z,23.20
2022-07-25T15:51:21.894Z,23.18
2022-07-25T15:54:29.377Z,23.00
2022-07-25T15:57:33.655Z,22.83
2022-07-25T16:00:36.523Z,22.77
2022-07-25T16:03:39.259Z,22.58
2022-07-25T16:06:41.914Z,22.35
2022-07-25T16:09:44.540Z,22.28
2022-07-25T16:12:48.491Z,22.19
2022-07-25T16:15:51.345Z,22.22
2022-07-25T16:18:54.055Z,22.09
2022-07-25T16:21:57.278Z,21.96
2022-07-25T16:25:01.160Z,22.07
2022-07-25T16:28:06.594Z,22.26
2022-07-25T16:31:09.324Z,22.07
2022-07-25T16:34:11.934Z,22.04
2022-07-25T16:37:15.193Z,21.95
2022-07-25T16:40:17.963Z,22.04
2022-07-25T16:43:22.453Z,21.70
2022-07-25T16:46:28.507Z,21.68
2022-07-25T16:49:31.450Z,21.62
2022-07-25T16:52:34.065Z,21.65
2022-07-25T16:55:36.687Z,21.55
2022-07-25T16:58:40.636Z,21.85
2022-07-25T17:01:43.259Z,21.46
2022-07-25T17:04:45.949Z,21.78
2022-07-25T17:07:56.983Z,21.56
2022-07-25T17:11:01.890Z,21.54
2022-07-25T17:14:05.887Z,21.76
2022-07-25T17:17:08.709Z,21.95
2022-07-25T17:20:12.100Z,21.97
2022-07-25T17:23:15.510Z,22.14
2022-07-25T17:26:18.096Z,22.22
2022-07-25T17:29:22.074Z,22.18
2022-07-25T17:32:29.516Z,22.12
2022-07-25T17:35:32.706Z,22.14
2022-07-25T17:38:35.423Z,22.21
2022-07-25T17:41:38.038Z,22.21
2022-07-25T17:44:41.931Z,22.06
2022-07-25T17:47:45.042Z,22.21
2022-07-25T17:50:47.603Z,22.10
2022-07-25T17:53:50.541Z,22.27
2022-07-25T17:56:53.210Z,22.26
2022-07-25T17:59:57.468Z,22.06
2022-07-25T18:03:00.175Z,22.14
2022-07-25T18:06:02.829Z,22.04
2022-07-25T18:09:05.578Z,22.24
2022-07-25T18:12:08.848Z,22.15
2022-07-25T18:15:14.750Z,21.83
2022-07-25T18:18:20.570Z,21.88
2022-07-25T18:21:24.417Z,21.98
2022-07-25T18:24:29.417Z,22.06
2022-07-25T18:27:32.266Z,22.02
2022-07-25T18:30:36.157Z,21.85
2022-07-25T18:33:38.724Z,21.59
2022-07-25T18:36:41.564Z,21.38
2022-07-25T18:39:44.471Z,21.72
2022-07-25T18:42:47.263Z,21.74
2022-07-25T18:45:51.340Z,21.72
2022-07-25T18:48:54.232Z,21.84
2022-07-25T18:51:56.884Z,21.87
2022-07-25T18:54:59.504Z,21.81
2022-07-25T18:58:02.103Z,21.81
2022-07-25T19:01:06.240Z,21.83
2022-07-25T19:04:09.248Z,21.85
2022-07-25T19:07:12.483Z,21.79
2022-07-25T19:10:15.231Z,21.70
2022-07-25T19:13:39.117Z,21.68
2022-07-25T19:16:41.892Z,21.55
2022-07-25T19:19:44.702Z,21.54
2022-07-25T19:22:47.372Z,21.48
2022-07-25T19:25:49.978Z,21.42
2022-07-25T19:28:52.567Z,21.40
2022-07-25T19:31:56.922Z,21.30
2022-07-25T19:34:59.554Z,21.24
2022-07-25T19:38:02.256Z,21.24
2022-07-25T19:41:05.060Z,21.11
2022-07-25T19:44:08.007Z,21.07
2022-07-25T19:47:12.258Z,21.16
2022-07-25T19:50:14.863Z,21.14
2022-07-25T19:53:17.534Z,21.19
2022-07-25T19:56:20.757Z,21.20
2022-07-25T19:59:23.421Z,21.15
2022-07-25T20:02:27.346Z,21.06
2022-07-25T20:05:30.660Z,21.17
2022-07-25T20:08:33.621Z,21.20
2022-07-25T20:11:37.397Z,21.18
2022-07-25T20:14:40.032Z,21.20
2022-07-25T20:17:43.998Z,21.33
2022-07-25T20:20:46.696Z,21.24
2022-07-25T20:23:49.510Z,21.25
2022-07-25T20:26:52.246Z,21.26
2022-07-25T20:29:54.814Z,21.25
2022-07-25T20:32:58.759Z,21.14
2022-07-25T20:36:01.564Z,21.03
2022-07-25T20:39:05.395Z,20.94
2022-07-25T20:42:09.011Z,20.98
2022-07-25T20:45:12.059Z,20.89
2022-07-25T20:48:16.132Z,20.92
2022-07-25T20:51:18.712Z,20.74
2022-07-25T20:54:21.294Z,20.74
2022-07-25T20:57:23.882Z,20.77
2022-07-25T21:00:28.685Z,20.75
2022-07-25T21:03:32.678Z,20.63
2022-07-25T21:06:35.378Z,20.48
2022-07-25T21:09:39.936Z,20.48
2022-07-25T21:12:42.765Z,20.23
2022-07-25T21:15:45.338Z,20.36
2022-07-25T21:18:49.294Z,20.39
2022-07-25T21:21:51.980Z,20.43
2022-07-25T21:24:54.883Z,20.30
2022-07-25T21:27:57.413Z,20.43
2022-07-25T21:31:00.040Z,20.52
2022-07-25T21:34:04.058Z,20.34
2022-07-25T21:37:07.001Z,20.36
2022-07-25T21:40:10.668Z,20.41
2022-07-25T21:43:13.305Z,20.45
2022-07-25T21:46:15.892Z,20.42
2022-07-25T21:49:41.272Z,20.34
2022-07-25T21:52:44.754Z,20.29
2022-07-25T21:55:47.295Z,20.34
2022-07-25T21:58:50.065Z,20.33
2022-07-25T22:01:52.675Z,20.37
2022-07-25T22:04:58.405Z,20.30
2022-07-25T22:08:01.002Z,20.28
2022-07-25T22:11:15.844Z,20.19
2022-07-25T22:14:22.536Z,20.18
2022-07-25T22:17:25.201Z,20.08
2022-07-25T22:20:29.196Z,20.02
2022-07-25T22:23:31.820Z,20.05
2022-07-25T22:26:34.475Z,19.87
2022-07-25T22:29:37.134Z,19.88
2022-07-25T22:32:39.702Z,19.88
2022-07-25T22:35:43.622Z,19.91
2022-07-25T22:38:46.450Z,19.92
2022-07-25T22:41:49.278Z,19.81
2022-07-25T22:44:51.815Z,19.78
2022-07-25T22:47:54.489Z,19.76
2022-07-25T22:50:58.437Z,19.65
2022-07-25T22:54:01.683Z,19.75
2022-07-25T22:57:04.453Z,19.70
2022-07-25T23:00:09.701Z,19.67
2022-07-25T23:03:12.293Z,19.64
2022-07-25T23:06:16.724Z,19.61
2022-07-25T23:09:19.564Z,19.58
2022-07-25T23:12:22.128Z,19.59
2022-07-25T23:15:24.721Z,19.55
2022-07-25T23:18:31.361Z,19.49
2022-07-25T23:21:35.666Z,19.54
2022-07-25T23:24:38.318Z,19.48
2022-07-25T23:27:40.965Z,19.52
2022-07-25T23:30:43.748Z,19.49
2022-07-25T23:33:46.352Z,19.50
2022-07-25T23:36:50.382Z,19.53
2022-07-25T23:39:52.958Z,19.56
2022-07-25T23:42:55.565Z,19.61
2022-07-25T23:45:58.379Z,19.58
2022-07-25T23:49:02.316Z,19.53
2022-07-25T23:52:06.688Z,19.57
2022-07-25T23:55:10.327Z,19.56
2022-07-25T23:58:12.851Z,19.66
